createdAt,value
2017-09-20T00:00:48.331Z,17.00
2017-09-20T00:03:15.658Z,17.00
2017-09-20T00:05:43.776Z,17.00
2017-09-20T00:08:11.158Z,17.00
2017-09-20T00:10:39.274Z,17.00
2017-09-20T00:13:06.637Z,17.00
2017-09-20T00:15:33.998Z,17.00
2017-09-20T00:18:01.318Z,16.90
2017-09-20T00:20:28.634Z,16.90
2017-09-20T00:22:56.041Z,16.90
2017-09-20T00:25:23.481Z,16.90
2017-09-20T00:27:51.562Z,16.90
2017-09-20T00:30:18.856Z,16.90
2017-09-20T00:32:46.253Z,16.90
2017-09-20T00:35:14.368Z,16.90
2017-09-20T00:37:42.531Z,16.90
2017-09-20T00:40:09.927Z,16.90
2017-09-20T00:42:37.262Z,16.90
2017-09-20T00:45:04.590Z,16.90
2017-09-20T00:47:32.510Z,16.90
2017-09-20T00:49:59.812Z,16.90
2017-09-20T00:52:27.160Z,16.90
2017-09-20T00:54:56.421Z,16.90
2017-09-20T00:57:23.749Z,16.80
2017-09-20T00:59:51.077Z,16.90
2017-09-20T01:02:18.390Z,16.90
2017-09-20T01:04:45.781Z,16.90
2017-09-20T01:07:13.197Z,16.90
2017-09-20T01:09:40.602Z,16.90
2017-09-20T01:12:08.860Z,16.90
2017-09-20T01:14:37.449Z,16.80
2017-09-20T01:17:05.598Z,16.80
2017-09-20T01:19:32.909Z,16.80
2017-09-20T01:22:06.176Z,16.80
2017-09-20T01:24:34.285Z,16.80
2017-09-20T01:27:02.082Z,16.80
2017-09-20T01:29:29.432Z,16.80
2017-09-20T01:31:56.760Z,16.80
2017-09-20T01:34:25.526Z,16.80
2017-09-20T01:36:52.679Z,16.70
2017-09-20T01:39:20.739Z,16.80
2017-09-20T01:41:47.916Z,16.80
2017-09-20T01:44:15.835Z,16.80
2017-09-20T01:46:43.027Z,16.80
2017-09-20T01:49:10.935Z,16.80
2017-09-20T01:51:38.082Z,16.80
2017-09-20T01:54:05.268Z,16.80
2017-09-20T01:56:33.175Z,16.70
2017-09-20T01:59:01.859Z,16.70
2017-09-20T02:01:30.711Z,16.70
2017-09-20T02:03:58.839Z,16.70
2017-09-20T02:06:25.980Z,16.70
2017-09-20T02:08:54.682Z,16.70
2017-09-20T02:11:21.858Z,16.70
2017-09-20T02:13:49.819Z,16.70
2017-09-20T02:16:17.746Z,16.70
2017-09-20T02:18:45.687Z,16.70
2017-09-20T02:21:12.867Z,16.70
2017-09-20T02:23:40.016Z,16.70
2017-09-20T02:26:07.211Z,16.70
2017-09-20T02:28:34.503Z,16.70
2017-09-20T02:31:01.681Z,16.70
2017-09-20T02:33:29.628Z,16.70
2017-09-20T02:35:56.775Z,16.60
2017-09-20T02:38:23.955Z,16.60
2017-09-20T02:40:52.675Z,16.60
2017-09-20T02:43:19.823Z,16.60
2017-09-20T02:45:47.004Z,16.60
2017-09-20T02:48:14.191Z,16.60
2017-09-20T02:50:43.009Z,16.60
2017-09-20T02:53:10.160Z,16.60
2017-09-20T02:55:38.129Z,16.60
2017-09-20T02:58:05.279Z,16.60
2017-09-20T03:00:33.316Z,16.60
2017-09-20T03:03:00.492Z,16.60
2017-09-20T03:05:29.199Z,16.60
2017-09-20T03:07:56.356Z,16.60
2017-09-20T03:10:24.443Z,16.60
2017-09-20T03:12:51.584Z,16.60
2017-09-20T03:15:19.311Z,16.60
2017-09-20T03:17:47.228Z,16.50
2017-09-20T03:20:15.139Z,16.50
2017-09-20T03:22:42.319Z,16.60
2017-09-20T03:25:09.459Z,16.60
2017-09-20T03:27:37.408Z,16.60
2017-09-20T03:30:05.455Z,16.50
2017-09-20T03:32:32.644Z,16.50
2017-09-20T03:35:00.557Z,16.50
2017-09-20T03:37:27.704Z,16.50
2017-09-20T03:39:54.888Z,16.50
2017-09-20T03:42:22.087Z,16.70
2017-09-20T03:44:50.135Z,16.90
2017-09-20T03:47:18.061Z,17.20
2017-09-20T03:49:45.235Z,17.20
2017-09-20T03:52:12.428Z,17.30
2017-09-20T03:54:39.571Z,17.40
2017-09-20T03:57:06.719Z,17.40
2017-09-20T03:59:33.898Z,17.40
2017-09-20T04:02:02.050Z,17.40
2017-09-20T04:04:29.999Z,17.50
2017-09-20T04:06:57.150Z,17.50
2017-09-20T04:09:24.327Z,17.50
2017-09-20T04:11:51.723Z,17.50
2017-09-20T04:14:19.669Z,17.50
2017-09-20T04:16:47.595Z,17.50
2017-09-20T04:19:14.787Z,17.50
2017-09-20T04:21:43.595Z,17.60
2017-09-20T04:24:10.739Z,17.60
2017-09-20T04:26:37.922Z,17.60
2017-09-20T04:29:05.103Z,17.60
2017-09-20T04:31:33.040Z,17.50
2017-09-20T04:34:00.979Z,17.60
2017-09-20T04:36:29.071Z,17.60
2017-09-20T04:38:56.252Z,17.60
2017-09-20T04:41:23.400Z,17.60
2017-09-20T04:43:50.587Z,17.60
2017-09-20T04:46:18.507Z,17.60
2017-09-20T04:48:46.424Z,17.60
2017-09-20T04:51:14.387Z,17.60
2017-09-20T04:53:41.537Z,17.60
2017-09-20T04:56:09.447Z,17.60
2017-09-20T04:58:36.623Z,17.60
2017-09-20T05:01:05.431Z,17.60
2017-09-20T05:03:32.622Z,17.60
2017-09-20T05:05:59.763Z,17.60
2017-09-20T05:08:26.911Z,17.60
2017-09-20T05:10:54.107Z,17.60
2017-09-20T05:13:22.024Z,17.60
2017-09-20T05:15:50.072Z,17.60
2017-09-20T05:18:17.251Z,17.60
2017-09-20T05:20:45.335Z,17.60
2017-09-20T05:23:12.523Z,17.60
2017-09-20T05:25:40.439Z,17.60
2017-09-20T05:28:07.589Z,17.60
2017-09-20T05:30:34.771Z,17.60
2017-09-20T05:33:01.995Z,17.60
2017-09-20T05:35:29.179Z,17.60
2017-09-20T05:37:56.323Z,17.60
2017-09-20T05:40:23.475Z,17.60
2017-09-20T05:42:50.648Z,17.60
2017-09-20T05:45:19.467Z,17.60
2017-09-20T05:47:46.646Z,17.60
2017-09-20T05:50:13.803Z,17.60
2017-09-20T05:52:40.956Z,17.60
2017-09-20T05:55:08.927Z,17.60
2017-09-20T05:57:36.071Z,17.60
2017-09-20T06:00:03.225Z,17.60
2017-09-20T06:02:30.410Z,17.60
2017-09-20T06:04:57.547Z,17.70
2017-09-20T06:07:25.544Z,17.70
2017-09-20T06:09:53.452Z,17.60
2017-09-20T06:12:21.495Z,17.60
2017-09-20T06:14:49.447Z,17.60
2017-09-20T06:17:16.593Z,17.60
2017-09-20T06:19:43.730Z,17.60
2017-09-20T06:22:11.840Z,17.70
2017-09-20T06:24:39.801Z,17.60
2017-09-20T06:27:07.711Z,17.70
2017-09-20T06:29:35.787Z,17.70
2017-09-20T06:32:03.803Z,17.70
2017-09-20T06:34:30.952Z,17.60
2017-09-20T06:36:59.008Z,17.60
2017-09-20T06:39:26.187Z,17.70
2017-09-20T06:41:54.103Z,17.80
2017-09-20T06:44:21.280Z,17.80
2017-09-20T06:46:49.232Z,17.90
2017-09-20T06:49:17.329Z,17.90
2017-09-20T06:51:46.182Z,18.00
2017-09-20T06:54:13.324Z,18.00
2017-09-20T06:56:41.336Z,18.10
2017-09-20T06:59:08.486Z,18.20
2017-09-20T07:01:35.635Z,18.20
2017-09-20T07:04:03.586Z,18.30
2017-09-20T07:06:31.503Z,18.20
2017-09-20T07:08:59.412Z,18.20
2017-09-20T07:11:26.590Z,18.20
2017-09-20T07:13:53.732Z,18.30
2017-09-20T07:16:21.847Z,18.30
2017-09-20T07:18:49.758Z,18.30
2017-09-20T07:21:16.941Z,18.20
2017-09-20T07:23:44.090Z,18.30
2017-09-20T07:26:12.167Z,18.30
2017-09-20T07:28:39.311Z,18.30
2017-09-20T07:31:07.268Z,18.20
2017-09-20T07:33:35.216Z,18.20
2017-09-20T07:36:02.363Z,18.20
2017-09-20T07:38:30.460Z,18.20
2017-09-20T07:40:57.609Z,18.20
2017-09-20T07:43:24.754Z,18.20
2017-09-20T07:45:51.932Z,18.20
2017-09-20T07:48:20.022Z,18.20
2017-09-20T07:50:47.195Z,18.20
2017-09-20T07:53:15.102Z,18.20
2017-09-20T07:55:43.064Z,18.20
2017-09-20T07:58:10.206Z,18.20
2017-09-20T08:00:37.389Z,18.20
2017-09-20T08:03:05.431Z,18.20
2017-09-20T08:05:32.622Z,18.20
2017-09-20T08:07:59.771Z,18.20
2017-09-20T08:10:26.919Z,18.20
2017-09-20T08:12:54.095Z,18.20
2017-09-20T08:15:21.243Z,18.20
2017-09-20T08:17:49.371Z,18.20
2017-09-20T08:20:16.511Z,18.20
2017-09-20T08:22:45.257Z,18.20
2017-09-20T08:25:13.174Z,18.10
2017-09-20T08:27:40.315Z,18.20
2017-09-20T08:30:08.416Z,18.20
2017-09-20T08:32:36.508Z,18.10
2017-09-20T08:35:04.595Z,18.20
2017-09-20T08:37:33.435Z,18.20
2017-09-20T08:40:01.371Z,18.10
2017-09-20T08:42:29.456Z,18.20
2017-09-20T08:44:57.398Z,18.20
2017-09-20T08:47:25.512Z,18.10
2017-09-20T08:49:54.340Z,18.20
2017-09-20T08:52:22.428Z,18.10
2017-09-20T08:54:50.508Z,18.20
2017-09-20T08:57:18.588Z,18.20
2017-09-20T08:59:46.637Z,18.20
2017-09-20T09:02:14.750Z,18.20
2017-09-20T09:04:42.839Z,18.20
2017-09-20T09:07:11.737Z,18.20
2017-09-20T09:09:39.823Z,18.20
2017-09-20T09:12:07.731Z,18.20
2017-09-20T09:14:34.908Z,18.10
2017-09-20T09:17:02.874Z,18.20
2017-09-20T09:19:30.076Z,18.10
2017-09-20T09:21:58.019Z,18.20
2017-09-20T09:24:25.926Z,18.20
2017-09-20T09:26:53.882Z,18.10
2017-09-20T09:29:21.018Z,18.20
2017-09-20T09:31:48.195Z,18.20
2017-09-20T09:34:15.344Z,18.20
2017-09-20T09:36:43.434Z,18.20
2017-09-20T09:39:10.575Z,18.20
2017-09-20T09:41:37.724Z,18.20
2017-09-20T09:44:04.916Z,18.20
2017-09-20T09:46:32.054Z,18.20
2017-09-20T09:48:59.195Z,18.20
2017-09-20T09:51:26.896Z,18.20
2017-09-20T09:53:55.708Z,18.20
2017-09-20T09:56:22.856Z,18.10
2017-09-20T09:58:50.037Z,18.20
2017-09-20T10:01:17.215Z,18.20
2017-09-20T10:03:45.296Z,18.20
2017-09-20T10:06:13.371Z,18.20
2017-09-20T10:08:40.523Z,18.20
2017-09-20T10:11:08.448Z,18.20
2017-09-20T10:13:36.513Z,18.20
2017-09-20T10:16:04.612Z,18.20
2017-09-20T10:18:32.712Z,18.20
2017-09-20T10:21:00.811Z,18.20
2017-09-20T10:23:28.853Z,18.20
2017-09-20T10:25:56.972Z,18.20
2017-09-20T10:28:25.032Z,18.20
2017-09-20T10:30:53.104Z,18.20
2017-09-20T10:33:21.189Z,18.20
2017-09-20T10:35:49.270Z,18.20
2017-09-20T10:38:17.344Z,18.20
2017-09-20T10:40:45.296Z,18.20
2017-09-20T10:43:13.394Z,18.20
2017-09-20T10:45:40.538Z,18.20
2017-09-20T10:48:08.543Z,18.10
2017-09-20T10:50:35.723Z,18.20
2017-09-20T10:53:04.569Z,18.20
2017-09-20T10:55:32.640Z,18.10
2017-09-20T10:58:00.724Z,18.20
2017-09-20T11:00:28.690Z,18.20
2017-09-20T11:02:56.759Z,18.20
2017-09-20T11:05:24.915Z,18.10
2017-09-20T11:07:52.966Z,18.20
2017-09-20T11:10:20.142Z,18.20
2017-09-20T11:12:48.112Z,18.20
2017-09-20T11:15:15.300Z,18.20
2017-09-20T11:17:43.235Z,18.20
2017-09-20T11:20:10.385Z,18.20
2017-09-20T11:22:37.584Z,18.20
2017-09-20T11:25:04.734Z,18.20
2017-09-20T11:27:31.879Z,18.20
2017-09-20T11:29:59.067Z,18.20
2017-09-20T11:32:26.265Z,18.20
2017-09-20T11:34:53.406Z,18.20
2017-09-20T11:37:20.548Z,18.20
2017-09-20T11:39:47.722Z,18.20
2017-09-20T11:42:14.871Z,18.20
2017-09-20T11:44:42.847Z,18.20
2017-09-20T11:47:09.995Z,18.20
2017-09-20T11:49:37.921Z,18.20
2017-09-20T11:52:05.996Z,18.20
2017-09-20T11:54:33.148Z,18.20
2017-09-20T11:57:01.100Z,18.20
2017-09-20T11:59:29.024Z,18.20
2017-09-20T12:01:57.114Z,18.20
2017-09-20T12:04:25.159Z,18.20
2017-09-20T12:06:53.083Z,18.20
2017-09-20T12:09:21.929Z,18.20
2017-09-20T12:11:49.145Z,18.10
2017-09-20T12:14:17.203Z,18.20
2017-09-20T12:16:45.289Z,18.20
2017-09-20T12:19:13.262Z,18.20
2017-09-20T12:21:40.439Z,18.20
2017-09-20T12:24:08.562Z,18.20
2017-09-20T12:26:37.375Z,18.20
2017-09-20T12:29:05.328Z,18.20
2017-09-20T12:31:34.044Z,18.20
2017-09-20T12:34:02.004Z,18.20
2017-09-20T12:36:30.071Z,18.20
2017-09-20T12:38:58.096Z,18.20
2017-09-20T12:41:25.238Z,18.20
2017-09-20T12:43:53.296Z,18.20
2017-09-20T12:46:20.474Z,18.20
2017-09-20T12:48:48.428Z,18.20
2017-09-20T12:51:16.536Z,18.20
2017-09-20T12:53:45.379Z,18.20
2017-09-20T12:56:13.299Z,18.10
2017-09-20T12:58:41.239Z,18.20
2017-09-20T13:01:09.188Z,18.10
2017-09-20T13:03:37.123Z,18.20
2017-09-20T13:06:04.306Z,18.20
2017-09-20T13:08:31.452Z,18.20
2017-09-20T13:10:59.495Z,18.20
2017-09-20T13:13:26.676Z,18.20
2017-09-20T13:15:53.867Z,18.20
2017-09-20T13:18:21.015Z,18.20
2017-09-20T13:20:48.943Z,18.20
2017-09-20T13:23:16.128Z,18.20
2017-09-20T13:25:43.266Z,18.20
2017-09-20T13:28:10.406Z,18.20
2017-09-20T13:30:37.580Z,18.20
2017-09-20T13:33:04.723Z,18.20
2017-09-20T13:35:31.899Z,18.20
2017-09-20T13:37:59.807Z,18.20
2017-09-20T13:40:26.983Z,18.10
2017-09-20T13:42:54.972Z,18.20
2017-09-20T13:45:23.019Z,18.20
2017-09-20T13:47:50.944Z,18.20
2017-09-20T13:50:18.903Z,18.20
2017-09-20T13:52:47.719Z,18.20
2017-09-20T13:55:14.868Z,18.10
2017-09-20T13:57:42.814Z,18.20
2017-09-20T14:00:10.726Z,18.20
2017-09-20T14:02:38.799Z,18.10
2017-09-20T14:05:07.615Z,18.20
2017-09-20T14:07:35.666Z,18.20
2017-09-20T14:10:03.638Z,18.20
2017-09-20T14:12:31.582Z,18.20
2017-09-20T14:14:59.622Z,18.20
2017-09-20T14:17:27.698Z,18.10
2017-09-20T14:19:56.523Z,18.20
2017-09-20T14:22:24.569Z,18.10
2017-09-20T14:24:53.417Z,18.20
2017-09-20T14:27:21.529Z,18.10
2017-09-20T14:29:49.471Z,18.20
2017-09-20T14:32:17.575Z,18.10
2017-09-20T14:34:46.396Z,18.20
2017-09-20T14:37:13.575Z,18.20
2017-09-20T14:39:41.327Z,18.20
2017-09-20T14:42:08.475Z,18.20
2017-09-20T14:44:36.583Z,18.20
2017-09-20T14:47:03.727Z,18.20
2017-09-20T14:49:31.645Z,18.20
2017-09-20T14:51:59.595Z,18.20
2017-09-20T14:54:27.510Z,18.20
2017-09-20T14:56:55.619Z,18.10
2017-09-20T14:59:22.768Z,18.20
2017-09-20T15:01:50.698Z,18.20
2017-09-20T15:04:17.889Z,18.20
2017-09-20T15:06:45.835Z,18.20
2017-09-20T15:09:13.751Z,18.20
2017-09-20T15:11:41.710Z,18.20
2017-09-20T15:14:08.863Z,18.10
2017-09-20T15:16:36.007Z,18.20
2017-09-20T15:19:03.184Z,18.20
2017-09-20T15:21:32.005Z,18.20
2017-09-20T15:23:59.184Z,18.10
2017-09-20T15:26:26.364Z,18.20
2017-09-20T15:28:55.105Z,18.20
2017-09-20T15:31:23.051Z,18.20
2017-09-20T15:33:51.111Z,18.10
2017-09-20T15:36:19.051Z,18.10
2017-09-20T15:38:46.236Z,18.10
2017-09-20T15:41:13.384Z,18.20
2017-09-20T15:43:42.105Z,18.10
2017-09-20T15:46:10.052Z,18.10
2017-09-20T15:48:37.237Z,18.10
2017-09-20T15:51:04.384Z,18.10
2017-09-20T15:53:32.375Z,18.10
2017-09-20T15:55:59.518Z,18.10
2017-09-20T15:58:26.708Z,18.10
2017-09-20T16:00:55.540Z,18.10
2017-09-20T16:03:23.606Z,18.10
2017-09-20T16:05:51.755Z,18.10
2017-09-20T16:08:19.847Z,18.10
2017-09-20T16:10:47.904Z,18.10
2017-09-20T16:13:15.081Z,18.10
2017-09-20T16:15:42.223Z,18.10
2017-09-20T16:18:10.331Z,18.10
2017-09-20T16:20:38.367Z,18.10
2017-09-20T16:23:06.355Z,18.10
2017-09-20T16:25:34.270Z,18.10
2017-09-20T16:28:03.091Z,18.20
2017-09-20T16:30:31.038Z,18.10
2017-09-20T16:32:59.719Z,18.20
2017-09-20T16:35:27.684Z,18.20
2017-09-20T16:37:56.385Z,18.10
2017-09-20T16:40:24.298Z,18.20
2017-09-20T16:42:52.443Z,18.10
2017-09-20T16:45:19.590Z,18.20
2017-09-20T16:47:47.511Z,18.20
2017-09-20T16:50:14.693Z,18.20
2017-09-20T16:52:42.604Z,18.20
2017-09-20T16:55:09.781Z,18.10
2017-09-20T16:57:37.696Z,18.10
2017-09-20T17:00:05.693Z,18.10
2017-09-20T17:02:32.841Z,18.10
2017-09-20T17:04:59.987Z,18.10
2017-09-20T17:07:27.171Z,18.10
2017-09-20T17:09:55.211Z,18.10
2017-09-20T17:12:23.172Z,18.10
2017-09-20T17:14:50.352Z,18.10
2017-09-20T17:17:17.507Z,18.10
2017-09-20T17:19:44.699Z,18.10
2017-09-20T17:22:12.615Z,18.10
2017-09-20T17:24:39.792Z,18.10
2017-09-20T17:27:06.962Z,18.10
2017-09-20T17:29:34.111Z,18.10
2017-09-20T17:32:01.295Z,17.90
2017-09-20T17:34:28.435Z,18.00
2017-09-20T17:36:56.375Z,18.00
2017-09-20T17:39:23.517Z,18.00
2017-09-20T17:41:50.732Z,18.00
2017-09-20T17:44:17.876Z,17.90
2017-09-20T17:46:45.071Z,18.00
2017-09-20T17:49:16.039Z,18.00
2017-09-20T17:51:43.988Z,18.10
2017-09-20T17:54:12.181Z,18.00
2017-09-20T17:56:39.383Z,18.10
2017-09-20T17:59:06.532Z,18.10
2017-09-20T18:01:38.503Z,18.00
2017-09-20T18:04:06.444Z,18.00
2017-09-20T18:06:34.531Z,18.10
2017-09-20T18:09:02.937Z,18.00
2017-09-20T18:11:31.819Z,18.00
2017-09-20T18:13:59.090Z,18.00
2017-09-20T18:16:32.879Z,18.00
2017-09-20T18:19:00.152Z,18.00
2017-09-20T18:21:29.887Z,18.00
2017-09-20T18:23:58.672Z,18.00
2017-09-20T18:26:25.816Z,18.00
2017-09-20T18:28:52.957Z,18.00
2017-09-20T18:31:20.159Z,18.10
2017-09-20T18:33:47.348Z,18.00
2017-09-20T18:36:14.535Z,18.10
2017-09-20T18:38:41.692Z,18.10
2017-09-20T18:45:45.280Z,18.00
2017-09-20T18:48:12.460Z,18.00
2017-09-20T18:50:39.609Z,18.00
2017-09-20T18:53:06.884Z,18.00
2017-09-20T18:55:34.811Z,18.00
2017-09-20T18:58:02.011Z,18.00
2017-09-20T19:00:30.023Z,18.00
2017-09-20T19:02:57.174Z,18.00
2017-09-20T19:05:24.352Z,18.00
2017-09-20T19:07:51.501Z,18.00
2017-09-20T19:10:19.488Z,18.00
2017-09-20T19:12:46.647Z,18.00
2017-09-20T19:15:15.444Z,18.00
2017-09-20T19:17:43.401Z,18.00
2017-09-20T19:20:10.597Z,18.00
2017-09-20T19:22:37.743Z,18.00
2017-09-20T19:25:04.903Z,18.00
2017-09-20T19:27:32.870Z,18.00
2017-09-20T19:30:00.965Z,18.00
2017-09-20T19:32:29.624Z,18.00
2017-09-20T19:34:56.815Z,18.00
2017-09-20T19:37:25.071Z,17.90
2017-09-20T19:39:52.221Z,17.90
2017-09-20T19:42:20.224Z,18.00
2017-09-20T19:44:47.402Z,17.90
2017-09-20T19:47:15.317Z,17.90
2017-09-20T19:49:42.535Z,17.90
2017-09-20T19:52:10.445Z,17.90
2017-09-20T19:54:37.589Z,17.90
2017-09-20T19:57:05.018Z,17.90
2017-09-20T19:59:32.199Z,17.90
2017-09-20T20:01:59.392Z,17.90
2017-09-20T20:04:26.580Z,17.90
2017-09-20T20:06:54.637Z,17.90
2017-09-20T20:09:22.615Z,17.90
2017-09-20T20:11:50.270Z,17.90
2017-09-20T20:14:18.175Z,17.90
2017-09-20T20:16:45.361Z,17.90
2017-09-20T20:19:12.512Z,17.90
2017-09-20T20:21:39.691Z,17.90
2017-09-20T20:24:07.648Z,17.90
2017-09-20T20:26:35.562Z,17.90
2017-09-20T20:29:02.715Z,17.90
2017-09-20T20:31:29.913Z,17.90
2017-09-20T20:33:58.771Z,17.90
2017-09-20T20:36:25.915Z,17.90
2017-09-20T20:38:53.112Z,17.90
2017-09-20T20:41:21.030Z,17.90
2017-09-20T20:43:48.183Z,17.90
2017-09-20T20:46:15.367Z,17.90
2017-09-20T20:48:42.515Z,17.90
2017-09-20T20:51:09.704Z,17.90
2017-09-20T20:53:38.510Z,17.90
2017-09-20T20:56:06.426Z,17.80
2017-09-20T20:58:34.523Z,17.90
2017-09-20T21:01:02.437Z,17.90
2017-09-20T21:03:29.615Z,17.80
2017-09-20T21:05:56.762Z,17.90
2017-09-20T21:08:23.939Z,17.90
2017-09-20T21:10:52.791Z,17.90
2017-09-20T21:13:20.875Z,17.80
2017-09-20T21:15:48.955Z,17.80
2017-09-20T21:18:16.131Z,17.80
2017-09-20T21:20:44.187Z,17.80
2017-09-20T21:23:11.455Z,17.80
2017-09-20T21:25:39.370Z,17.80
2017-09-20T21:28:06.572Z,17.80
2017-09-20T21:30:34.483Z,17.80
2017-09-20T21:33:01.668Z,17.80
2017-09-20T21:35:29.580Z,17.80
2017-09-20T21:37:57.529Z,17.80
2017-09-20T21:40:24.680Z,17.80
2017-09-20T21:42:52.235Z,17.80
2017-09-20T21:45:20.451Z,17.80
2017-09-20T21:47:48.635Z,17.80
2017-09-20T21:50:15.890Z,17.80
2017-09-20T21:52:43.153Z,17.80
2017-09-20T21:55:12.952Z,17.80
2017-09-20T21:57:41.830Z,17.80
2017-09-20T22:00:09.017Z,17.80
2017-09-20T22:02:37.117Z,17.80
2017-09-20T22:05:05.914Z,17.80
2017-09-20T22:07:35.617Z,17.80
2017-09-20T22:10:03.568Z,17.80
2017-09-20T22:12:30.713Z,17.80
2017-09-20T22:15:03.723Z,17.80
2017-09-20T22:17:36.815Z,17.80
2017-09-20T22:20:09.963Z,17.80
2017-09-20T22:22:43.096Z,17.80
2017-09-20T22:25:16.207Z,17.80
2017-09-20T22:27:45.052Z,17.80
2017-09-20T22:30:13.156Z,17.80
2017-09-20T22:32:40.300Z,17.90
2017-09-20T22:35:08.224Z,18.00
2017-09-20T22:37:35.395Z,18.00
2017-09-20T22:40:02.590Z,18.10
2017-09-20T22:42:31.300Z,18.20
2017-09-20T22:44:59.209Z,18.30
2017-09-20T22:47:26.404Z,18.30
2017-09-20T22:49:53.552Z,18.30
2017-09-20T22:52:20.699Z,18.30
2017-09-20T22:54:47.879Z,18.40
2017-09-20T22:57:15.039Z,18.40
2017-09-20T22:59:42.216Z,18.40
2017-09-20T23:02:10.311Z,18.40
2017-09-20T23:04:37.500Z,18.40
2017-09-20T23:07:05.414Z,18.40
2017-09-20T23:09:33.343Z,18.30
2017-09-20T23:12:01.288Z,18.30
2017-09-20T23:14:29.336Z,18.30
2017-09-20T23:16:57.280Z,18.30
2017-09-20T23:19:24.971Z,18.30
2017-09-20T23:21:52.940Z,18.30
2017-09-20T23:24:20.084Z,18.30
2017-09-20T23:26:47.264Z,18.30
2017-09-20T23:29:15.319Z,18.30
2017-09-20T23:31:43.281Z,18.30
2017-09-20T23:34:10.473Z,18.30
2017-09-20T23:36:38.388Z,18.30
2017-09-20T23:39:05.536Z,18.30
2017-09-20T23:41:32.731Z,18.30
2017-09-20T23:44:00.516Z,18.30
2017-09-20T23:46:29.363Z,18.30
2017-09-20T23:48:56.547Z,18.30
2017-09-20T23:51:25.376Z,18.30
2017-09-20T23:53:52.524Z,18.30
2017-09-20T23:56:19.710Z,18.30
2017-09-20T23:58:47.848Z,18.30
